Time;durP1;ratioP1;P1;durP2;ratioP2;P2;SDS_P1;SDS_P2;PMS_P1;PMS_P2;Temp;Humidity;BMP_temperature;BMP_pressure;BME280_temperature;BME280_humidity;BME280_pressure;Samples;Min_cycle;Max_cycle;Signal;HPM_P1;HPM_P2
2021/07/23 00:01:14;;;;;;;2.92;2.60;;;20.40;99.90;;;;;;5016316;28;20223;-78
2021/07/23 00:03:41;;;;;;;2.80;2.60;;;20.30;99.90;;;;;;5012949;28;20282;-78
2021/07/23 00:06:08;;;;;;;3.25;2.45;;;20.30;99.90;;;;;;5017991;28;20223;-78
2021/07/23 00:08:35;;;;;;;2.55;2.35;;;20.30;99.90;;;;;;5017694;28;20219;-77
2021/07/23 00:11:02;;;;;;;3.05;2.75;;;20.30;99.90;;;;;;5019449;28;20276;-78
2021/07/23 00:13:29;;;;;;;3.38;2.80;;;20.30;99.90;;;;;;5031951;28;20261;-79
2021/07/23 00:15:57;;;;;;;2.72;2.53;;;20.30;99.90;;;;;;5015869;28;20228;-78
2021/07/23 00:18:24;;;;;;;2.88;2.65;;;20.30;99.90;;;;;;5020295;28;20220;-78
2021/07/23 00:20:51;;;;;;;2.72;2.53;;;20.30;99.90;;;;;;5022533;28;20701;-78
2021/07/23 00:23:19;;;;;;;3.05;2.65;;;20.30;99.90;;;;;;5019867;28;20224;-77
2021/07/23 00:25:46;;;;;;;2.55;2.38;;;20.30;99.90;;;;;;5019622;28;20267;-77
2021/07/23 00:28:14;;;;;;;2.70;2.50;;;20.30;99.90;;;;;;5015159;28;20259;-77
2021/07/23 00:30:41;;;;;;;3.42;2.65;;;20.20;99.90;;;;;;5014530;28;20601;-78
2021/07/23 00:33:09;;;;;;;2.47;2.28;;;20.20;99.90;;;;;;5019540;28;20242;-77
2021/07/23 00:35:36;;;;;;;2.63;2.42;;;20.20;99.90;;;;;;5017923;28;20293;-76
2021/07/23 00:38:03;;;;;;;2.47;2.28;;;20.10;99.90;;;;;;5024515;28;20823;-77
2021/07/23 00:40:30;;;;;;;2.78;2.55;;;19.90;99.90;;;;;;5020565;28;20298;-77
2021/07/23 00:42:57;;;;;;;3.85;2.60;;;19.80;99.90;;;;;;5017273;28;20227;-77
2021/07/23 00:45:24;;;;;;;3.00;2.70;;;19.70;99.90;;;;;;5016578;28;20274;-77
2021/07/23 00:47:54;;;;;;;2.35;2.15;;;19.70;99.90;;;;;;5019271;28;20705;-77
2021/07/23 00:50:23;;;;;;;2.25;2.05;;;19.60;99.90;;;;;;5012056;28;20728;-77
2021/07/23 00:52:50;;;;;;;2.67;2.47;;;19.60;99.90;;;;;;5012183;28;20232;-79
2021/07/23 00:55:17;;;;;;;3.63;2.83;;;19.60;99.90;;;;;;5008838;28;20263;-76
2021/07/23 00:57:45;;;;;;;2.92;2.72;;;19.50;99.90;;;;;;5011645;28;20219;-77
2021/07/23 01:00:13;;;;;;;2.45;2.25;;;19.50;99.90;;;;;;5015496;28;20220;-77
2021/07/23 01:02:40;;;;;;;2.58;2.38;;;19.40;99.90;;;;;;5009289;28;20714;-79
2021/07/23 01:05:08;;;;;;;3.13;2.58;;;19.40;99.90;;;;;;5026530;28;21056;-76
2021/07/23 01:07:37;;;;;;;2.55;2.35;;;19.40;99.90;;;;;;5014748;28;21367;-77
2021/07/23 01:10:05;;;;;;;3.40;2.55;;;19.40;99.90;;;;;;5018774;28;20235;-77
2021/07/23 01:12:35;;;;;;;2.95;2.75;;;19.40;99.90;;;;;;5020475;28;20233;-77
2021/07/23 01:15:02;;;;;;;2.75;2.55;;;19.40;99.90;;;;;;5022325;28;20228;-76
2021/07/23 01:17:30;;;;;;;2.55;2.35;;;19.40;99.90;;;;;;5022045;28;20509;-77
2021/07/23 01:20:02;;;;;;;2.80;2.60;;;19.50;99.90;;;;;;5016317;28;20220;-77
2021/07/23 01:22:31;;;;;;;2.78;2.58;;;19.50;99.90;;;;;;5015395;28;20220;-77
2021/07/23 01:25:01;;;;;;;2.47;2.28;;;19.50;99.90;;;;;;5021733;28;20717;-77
2021/07/23 01:27:29;;;;;;;3.15;2.75;;;19.40;99.90;;;;;;5020719;28;20658;-76
2021/07/23 01:30:07;;;;;;;2.75;2.55;;;19.40;99.90;;;;;;5016503;28;20628;-76
2021/07/23 01:32:34;;;;;;;3.00;2.80;;;19.40;99.90;;;;;;5016215;28;20302;-76
2021/07/23 01:35:01;;;;;;;2.58;2.38;;;19.30;99.90;;;;;;5022585;28;20236;-77
2021/07/23 01:37:28;;;;;;;2.95;2.70;;;19.30;99.90;;;;;;5022385;28;20235;-76
2021/07/23 01:39:59;;;;;;;3.40;3.10;;;19.30;99.90;;;;;;5018511;28;20710;-78
2021/07/23 01:42:28;;;;;;;3.00;2.80;;;19.30;99.90;;;;;;5019404;28;20240;-78
2021/07/23 01:44:55;;;;;;;3.00;2.80;;;19.30;99.90;;;;;;5023502;28;20288;-78
2021/07/23 01:47:23;;;;;;;3.22;2.92;;;19.30;99.90;;;;;;5020663;28;20227;-77
2021/07/23 01:49:50;;;;;;;3.20;2.90;;;19.30;99.90;;;;;;5022955;28;20832;-77
2021/07/23 01:52:17;;;;;;;3.33;3.08;;;19.30;99.90;;;;;;5012903;28;20235;-78
2021/07/23 01:54:44;;;;;;;2.92;2.72;;;19.30;99.90;;;;;;5027554;28;20228;-76
2021/07/23 01:57:11;;;;;;;2.47;2.28;;;19.30;99.90;;;;;;5014559;28;20228;-76
2021/07/23 01:59:39;;;;;;;2.92;2.72;;;19.20;99.90;;;;;;5013010;28;20632;-76
2021/07/23 02:02:06;;;;;;;2.97;2.70;;;19.20;99.90;;;;;;5018709;28;20979;-77
2021/07/23 02:04:33;;;;;;;3.58;2.63;;;19.20;99.90;;;;;;5020751;28;20230;-77
2021/07/23 02:07:00;;;;;;;3.00;2.80;;;19.20;99.90;;;;;;5026077;28;20231;-77
2021/07/23 02:09:28;;;;;;;3.05;2.40;;;19.30;99.90;;;;;;5020010;28;20227;-77
2021/07/23 02:11:55;;;;;;;2.90;2.70;;;19.30;99.90;;;;;;5024690;28;20255;-77
2021/07/23 02:14:22;;;;;;;2.70;2.50;;;19.30;99.90;;;;;;5016443;28;20728;-77
2021/07/23 02:16:50;;;;;;;3.05;2.85;;;19.40;99.90;;;;;;5018037;28;20219;-76
2021/07/23 02:19:17;;;;;;;2.90;2.65;;;19.30;99.90;;;;;;5021954;28;20231;-76
2021/07/23 02:21:45;;;;;;;2.80;2.60;;;19.30;99.90;;;;;;5013607;28;20285;-76
2021/07/23 02:24:12;;;;;;;3.38;3.08;;;19.20;99.90;;;;;;5018201;28;20227;-76
2021/07/23 02:26:39;;;;;;;2.97;2.67;;;19.20;99.90;;;;;;5012324;28;20251;-76
2021/07/23 02:29:06;;;;;;;2.97;2.67;;;19.20;99.90;;;;;;5019252;28;20282;-76
2021/07/23 02:31:33;;;;;;;3.88;2.90;;;19.10;99.90;;;;;;5020130;28;20223;-77
2021/07/23 02:34:01;;;;;;;3.22;2.97;;;19.10;99.90;;;;;;5019196;28;20223;-76
2021/07/23 02:36:28;;;;;;;2.83;2.63;;;19.10;99.90;;;;;;5025821;28;22552;-76
2021/07/23 02:38:55;;;;;;;3.00;2.63;;;19.10;99.90;;;;;;5017109;28;20227;-77
2021/07/23 02:41:22;;;;;;;3.20;2.90;;;19.00;99.90;;;;;;5021457;28;20223;-78
2021/07/23 02:43:49;;;;;;;3.40;2.60;;;19.00;99.90;;;;;;5020968;28;20656;-77
2021/07/23 02:46:17;;;;;;;2.88;2.67;;;19.00;99.90;;;;;;5032694;28;20223;-76
2021/07/23 02:48:44;;;;;;;3.05;2.85;;;19.00;99.90;;;;;;5010680;28;20293;-75
2021/07/23 02:51:12;;;;;;;3.05;2.85;;;19.00;99.90;;;;;;5015139;28;20219;-75
2021/07/23 02:53:39;;;;;;;2.88;2.67;;;19.00;99.90;;;;;;5012854;28;20573;-76
2021/07/23 02:56:07;;;;;;;3.10;2.80;;;19.00;99.90;;;;;;5014675;28;20223;-76
2021/07/23 02:58:38;;;;;;;3.80;3.40;;;18.90;99.90;;;;;;5017568;28;20223;-76
2021/07/23 03:01:06;;;;;;;3.40;3.10;;;18.80;99.90;;;;;;5014215;28;20762;-77
2021/07/23 03:03:33;;;;;;;3.30;3.00;;;18.70;99.90;;;;;;5012958;28;20224;-76
2021/07/23 03:06:00;;;;;;;3.20;2.90;;;18.60;99.90;;;;;;5022082;28;20586;-76
2021/07/23 03:08:28;;;;;;;3.00;2.80;;;18.70;99.90;;;;;;5017634;28;20228;-76
2021/07/23 03:10:56;;;;;;;2.97;2.75;;;18.80;99.90;;;;;;5011959;28;20293;-76
2021/07/23 03:13:23;;;;;;;3.38;3.08;;;18.80;99.90;;;;;;5016955;28;20314;-75
2021/07/23 03:15:50;;;;;;;3.30;3.00;;;18.80;99.90;;;;;;5011001;28;20291;-77
2021/07/23 03:18:17;;;;;;;3.45;3.15;;;18.80;99.90;;;;;;5011417;28;20215;-76
2021/07/23 03:20:44;;;;;;;3.33;3.00;;;18.80;99.90;;;;;;5008166;28;20270;-76
2021/07/23 03:23:11;;;;;;;3.40;3.20;;;18.90;99.90;;;;;;5016470;28;20223;-76
2021/07/23 03:25:40;;;;;;;3.60;3.30;;;18.90;99.90;;;;;;5016266;28;20243;-77
2021/07/23 03:28:07;;;;;;;3.47;3.10;;;18.90;99.90;;;;;;5014748;28;20973;-77
2021/07/23 03:30:34;;;;;;;3.67;3.35;;;18.90;99.90;;;;;;5020780;28;20714;-77
2021/07/23 03:33:02;;;;;;;3.75;3.45;;;18.80;99.90;;;;;;5024508;28;20664;-77
2021/07/23 03:35:29;;;;;;;3.30;3.00;;;18.80;99.90;;;;;;5031781;28;20230;-78
2021/07/23 03:37:56;;;;;;;3.60;3.30;;;18.80;99.90;;;;;;5020277;28;20725;-78
2021/07/23 03:40:23;;;;;;;3.58;3.28;;;18.80;99.90;;;;;;5017969;28;20278;-75
2021/07/23 03:42:51;;;;;;;3.78;3.47;;;18.80;99.90;;;;;;5014018;28;20224;-76
2021/07/23 03:45:18;;;;;;;4.88;3.53;;;18.80;99.90;;;;;;5024290;28;20282;-76
2021/07/23 03:47:45;;;;;;;3.17;2.88;;;18.80;99.90;;;;;;5019133;28;20215;-76
2021/07/23 03:50:12;;;;;;;4.20;3.40;;;18.70;99.90;;;;;;5023738;28;20584;-76
2021/07/23 03:52:39;;;;;;;3.53;3.25;;;18.80;99.90;;;;;;5020749;28;20223;-76
2021/07/23 03:55:07;;;;;;;3.50;3.20;;;18.80;99.90;;;;;;5017772;28;20766;-77
2021/07/23 03:57:34;;;;;;;2.97;2.78;;;18.90;99.90;;;;;;5021420;28;20643;-77
2021/07/23 04:00:03;;;;;;;3.65;3.35;;;18.80;99.90;;;;;;5020737;28;20232;-76
2021/07/23 04:02:30;;;;;;;3.70;3.40;;;18.80;99.90;;;;;;5019893;28;21379;-76
2021/07/23 04:04:57;;;;;;;3.72;3.42;;;18.80;99.90;;;;;;5018513;28;20367;-77
2021/07/23 04:07:24;;;;;;;3.10;2.90;;;18.80;99.90;;;;;;5026237;28;20215;-75
2021/07/23 04:09:51;;;;;;;3.85;3.55;;;18.80;99.90;;;;;;5015813;28;20289;-76
2021/07/23 04:12:18;;;;;;;4.30;3.20;;;18.80;99.90;;;;;;5024205;28;20231;-76
2021/07/23 04:14:45;;;;;;;3.63;3.33;;;18.80;99.90;;;;;;5022917;28;20269;-77
2021/07/23 04:17:13;;;;;;;3.08;2.88;;;18.80;99.90;;;;;;5006340;28;20246;-76
2021/07/23 04:19:40;;;;;;;3.58;3.28;;;18.80;99.90;;;;;;5020240;28;20227;-76
2021/07/23 04:22:08;;;;;;;3.35;3.10;;;18.80;99.90;;;;;;5019220;28;20227;-76
2021/07/23 04:24:36;;;;;;;2.97;2.75;;;18.80;99.90;;;;;;5021685;28;20293;-76
2021/07/23 04:27:03;;;;;;;3.22;3.03;;;18.90;99.90;;;;;;5032150;28;20224;-77
2021/07/23 04:29:30;;;;;;;3.50;3.20;;;19.00;99.90;;;;;;5021520;28;20220;-76
2021/07/23 04:31:57;;;;;;;3.67;3.38;;;19.00;99.90;;;;;;5017351;28;20290;-77
2021/07/23 04:34:25;;;;;;;3.58;3.28;;;19.10;99.90;;;;;;5024071;28;20232;-76
2021/07/23 04:36:52;;;;;;;3.22;3.00;;;19.10;99.90;;;;;;5019020;28;20219;-76
2021/07/23 04:39:19;;;;;;;3.55;3.25;;;19.10;99.90;;;;;;5021969;28;20216;-76
2021/07/23 04:41:46;;;;;;;3.35;3.05;;;19.20;99.90;;;;;;5014661;28;20302;-76
2021/07/23 04:44:13;;;;;;;3.33;3.00;;;19.20;99.90;;;;;;5016914;28;20776;-77
2021/07/23 04:46:40;;;;;;;4.43;3.40;;;19.20;99.90;;;;;;5018721;28;20231;-77
2021/07/23 04:49:07;;;;;;;3.13;2.92;;;19.30;99.90;;;;;;5020224;28;20216;-76
2021/07/23 04:51:35;;;;;;;3.72;3.40;;;19.40;99.90;;;;;;5018360;28;20232;-77
2021/07/23 04:54:02;;;;;;;4.13;3.20;;;19.50;99.90;;;;;;5015489;28;20274;-75
2021/07/23 04:56:29;;;;;;;3.58;3.25;;;19.60;99.90;;;;;;5020084;28;20223;-76
2021/07/23 04:58:57;;;;;;;4.07;3.67;;;19.50;99.90;;;;;;5012627;28;20231;-77
2021/07/23 05:01:24;;;;;;;3.65;3.35;;;19.30;99.90;;;;;;5012819;28;20232;-78
2021/07/23 05:03:51;;;;;;;4.28;3.75;;;19.10;99.90;;;;;;5017139;28;20215;-77
2021/07/23 05:06:19;;;;;;;5.95;4.22;;;18.90;99.90;;;;;;5017536;28;20297;-76
2021/07/23 05:08:47;;;;;;;3.53;3.30;;;18.70;99.90;;;;;;5015072;28;20222;-76
2021/07/23 05:11:15;;;;;;;4.18;3.70;;;18.60;99.90;;;;;;5019456;28;20224;-76
2021/07/23 05:13:43;;;;;;;3.45;3.25;;;18.60;99.90;;;;;;5021023;28;20269;-78
2021/07/23 05:16:11;;;;;;;3.45;3.25;;;18.70;99.90;;;;;;5017972;28;20220;-79
2021/07/23 05:18:40;;;;;;;3.92;3.17;;;19.10;99.90;;;;;;5031153;28;20223;-76
2021/07/23 05:21:10;;;;;;;3.38;3.08;;;19.50;99.90;;;;;;5017075;28;20602;-76
2021/07/23 05:23:39;;;;;;;3.75;3.45;;;19.80;99.90;;;;;;5012924;28;20220;-76
2021/07/23 05:26:07;;;;;;;4.65;4.18;;;19.80;99.90;;;;;;5016440;28;20297;-76
2021/07/23 05:28:34;;;;;;;4.38;3.97;;;19.90;99.90;;;;;;5016322;28;20230;-76
2021/07/23 05:31:01;;;;;;;4.93;4.53;;;19.90;99.90;;;;;;5018082;28;20235;-76
2021/07/23 05:33:28;;;;;;;4.72;4.22;;;19.80;99.90;;;;;;5023477;28;20234;-76
2021/07/23 05:35:56;;;;;;;4.72;4.32;;;19.50;99.90;;;;;;5015940;28;20228;-77
2021/07/23 05:38:23;;;;;;;5.45;4.70;;;19.30;99.90;;;;;;5018382;28;20732;-78
2021/07/23 05:40:50;;;;;;;9.23;4.35;;;19.30;99.90;;;;;;5016237;28;20213;-77
2021/07/23 05:43:18;;;;;;;4.65;3.95;;;19.50;99.90;;;;;;5020026;28;20277;-77
2021/07/23 05:45:45;;;;;;;4.15;3.78;;;19.80;99.90;;;;;;5019313;28;20227;-77
2021/07/23 05:48:12;;;;;;;5.03;4.63;;;20.10;99.90;;;;;;5015699;28;20657;-77
2021/07/23 05:50:39;;;;;;;4.20;3.80;;;20.20;99.90;;;;;;5017396;28;20223;-76
2021/07/23 05:53:06;;;;;;;4.90;4.50;;;20.10;99.90;;;;;;5019162;28;20230;-76
2021/07/23 05:55:33;;;;;;;5.07;4.50;;;20.00;99.90;;;;;;5014066;28;20659;-77
2021/07/23 05:58:00;;;;;;;5.28;4.88;;;20.00;99.90;;;;;;5021032;28;20227;-76
2021/07/23 06:00:28;;;;;;;5.13;4.63;;;20.00;99.90;;;;;;5020045;28;20261;-77
2021/07/23 06:03:01;;;;;;;5.63;4.60;;;20.00;99.90;;;;;;5015652;28;20273;-77
2021/07/23 06:05:28;;;;;;;4.78;4.38;;;20.00;99.90;;;;;;5016520;28;20704;-77
2021/07/23 06:07:55;;;;;;;4.88;4.40;;;19.90;99.90;;;;;;5030968;28;20211;-79
2021/07/23 06:10:22;;;;;;;5.30;3.95;;;20.00;99.90;;;;;;5037055;28;20344;-77
2021/07/23 06:12:49;;;;;;;4.68;4.28;;;20.10;99.90;;;;;;5031072;28;20306;-76
2021/07/23 06:15:16;;;;;;;4.90;4.50;;;20.10;99.90;;;;;;5019912;28;20263;-77
2021/07/23 06:17:44;;;;;;;4.90;4.50;;;20.10;99.90;;;;;;5028131;28;20277;-77
2021/07/23 06:20:12;;;;;;;5.05;4.57;;;20.10;99.90;;;;;;5016394;28;20269;-76
2021/07/23 06:22:39;;;;;;;5.70;4.82;;;20.10;99.90;;;;;;5024288;28;20519;-76
2021/07/23 06:25:07;;;;;;;5.40;5.00;;;20.20;99.90;;;;;;5022723;28;20254;-76
2021/07/23 06:27:34;;;;;;;4.97;4.57;;;20.20;99.90;;;;;;5019674;28;20591;-77
2021/07/23 06:30:01;;;;;;;6.63;5.65;;;20.40;99.90;;;;;;5019568;28;20301;-77
2021/07/23 06:32:31;;;;;;;5.57;5.00;;;20.60;99.90;;;;;;5025591;28;20772;-78
2021/07/23 06:34:59;;;;;;;5.72;5.20;;;20.60;99.90;;;;;;5017911;28;20227;-76
2021/07/23 06:37:26;;;;;;;5.10;4.60;;;20.70;99.90;;;;;;5029193;28;20796;-76
2021/07/23 06:39:53;;;;;;;5.05;4.53;;;20.70;99.90;;;;;;5019040;28;20293;-77
2021/07/23 06:42:21;;;;;;;5.65;5.15;;;20.70;99.90;;;;;;5026179;28;20648;-78
2021/07/23 06:44:49;;;;;;;5.30;4.80;;;20.80;99.90;;;;;;5021385;28;20298;-77
2021/07/23 06:47:16;;;;;;;5.18;4.75;;;20.80;99.90;;;;;;5015568;28;20212;-78
2021/07/23 06:49:43;;;;;;;5.97;5.30;;;20.80;99.90;;;;;;5016773;28;20215;-77
2021/07/23 06:52:11;;;;;;;6.07;5.25;;;20.90;99.90;;;;;;5024733;28;20293;-75
2021/07/23 06:54:38;;;;;;;5.90;5.30;;;21.00;99.90;;;;;;5017702;28;20305;-77
2021/07/23 06:57:06;;;;;;;6.38;5.75;;;21.00;99.90;;;;;;5020685;28;20228;-77
2021/07/23 06:59:34;;;;;;;6.40;5.80;;;21.10;99.90;;;;;;5016924;28;20208;-77
2021/07/23 07:02:02;;;;;;;5.32;4.82;;;21.10;99.90;;;;;;5021384;28;20296;-77
2021/07/23 07:04:29;;;;;;;5.45;4.93;;;21.10;99.90;;;;;;5015950;28;20289;-77
2021/07/23 07:06:57;;;;;;;7.65;6.07;;;21.20;99.90;;;;;;5018590;28;20277;-76
2021/07/23 07:09:26;;;;;;;5.38;4.88;;;21.20;99.90;;;;;;5033607;28;20224;-77
2021/07/23 07:11:54;;;;;;;6.18;5.57;;;21.20;99.90;;;;;;5019758;28;20227;-76
2021/07/23 07:14:22;;;;;;;5.32;4.93;;;21.30;99.90;;;;;;5016851;28;20632;-76
2021/07/23 07:16:49;;;;;;;5.03;4.53;;;21.40;99.90;;;;;;5022558;28;20238;-77
2021/07/23 07:19:16;;;;;;;7.38;5.90;;;21.50;99.90;;;;;;5009650;28;20278;-76
2021/07/23 07:21:48;;;;;;;10.38;5.63;;;21.60;99.90;;;;;;5013473;28;20231;-77
2021/07/23 07:24:16;;;;;;;6.10;5.20;;;21.80;99.90;;;;;;5021840;28;20259;-76
2021/07/23 07:26:44;;;;;;;5.53;5.03;;;21.90;99.90;;;;;;5025355;28;20574;-77
2021/07/23 07:29:12;;;;;;;5.93;5.40;;;22.20;99.90;;;;;;5018472;28;20319;-76
2021/07/23 07:31:39;;;;;;;6.93;5.80;;;22.30;99.90;;;;;;5027037;28;20254;-76
2021/07/23 07:34:06;;;;;;;5.63;5.13;;;22.40;99.90;;;;;;5022602;28;20713;-77
2021/07/23 07:36:33;;;;;;;6.32;5.28;;;22.50;99.90;;;;;;5031973;28;20634;-78
2021/07/23 07:39:01;;;;;;;8.63;5.53;;;22.50;99.90;;;;;;5023189;28;20223;-77
2021/07/23 07:41:29;;;;;;;6.45;5.82;;;22.60;99.90;;;;;;5027080;28;20223;-78
2021/07/23 07:43:57;;;;;;;5.85;5.35;;;22.60;99.90;;;;;;5027010;28;20309;-77
2021/07/23 07:46:25;;;;;;;7.38;6.03;;;22.60;99.90;;;;;;5025685;28;20230;-77
2021/07/23 07:48:52;;;;;;;6.57;5.00;;;22.70;99.90;;;;;;5029053;28;20223;-77
2021/07/23 07:51:19;;;;;;;7.45;5.15;;;22.90;99.90;;;;;;5022458;28;20226;-79
2021/07/23 07:53:46;;;;;;;5.32;4.93;;;23.10;99.90;;;;;;5036316;28;20741;-77
2021/07/23 07:56:15;;;;;;;5.45;4.95;;;23.20;99.90;;;;;;5028343;28;20242;-77
2021/07/23 07:58:42;;;;;;;5.95;4.75;;;23.30;99.90;;;;;;5019253;28;20237;-77
2021/07/23 08:01:11;;;;;;;5.38;4.88;;;23.40;99.90;;;;;;5021083;28;20227;-76
2021/07/23 08:03:38;;;;;;;5.32;4.88;;;23.50;99.90;;;;;;5024215;28;20647;-77
2021/07/23 08:06:06;;;;;;;5.15;4.75;;;23.60;99.90;;;;;;5022216;28;20228;-78
2021/07/23 08:08:34;;;;;;;6.20;5.60;;;23.70;99.90;;;;;;5022630;28;20914;-76
2021/07/23 08:11:01;;;;;;;5.88;5.13;;;23.70;99.90;;;;;;5027259;28;20222;-76
2021/07/23 08:13:28;;;;;;;6.65;5.68;;;23.60;99.90;;;;;;5025165;28;20949;-77
2021/07/23 08:15:56;;;;;;;5.65;5.20;;;23.70;99.90;;;;;;5024386;28;20490;-76
2021/07/23 08:18:25;;;;;;;5.45;4.95;;;23.60;99.90;;;;;;5031252;28;20215;-77
2021/07/23 08:20:52;;;;;;;8.48;4.88;;;23.50;99.90;;;;;;5030991;28;20269;-77
2021/07/23 08:23:20;;;;;;;5.97;5.47;;;23.80;99.90;;;;;;5032172;28;20224;-77
2021/07/23 08:25:47;;;;;;;5.68;4.97;;;24.00;99.90;;;;;;5029383;28;20327;-78
2021/07/23 08:28:15;;;;;;;6.22;5.32;;;24.00;99.90;;;;;;5027027;28;20226;-76
2021/07/23 08:30:42;;;;;;;5.65;5.05;;;24.00;99.90;;;;;;5029997;28;20246;-76
2021/07/23 08:33:09;;;;;;;4.78;4.38;;;24.10;99.90;;;;;;5026315;28;20247;-76
2021/07/23 08:35:38;;;;;;;5.47;4.97;;;24.20;99.90;;;;;;5027649;28;20231;-77
2021/07/23 08:38:05;;;;;;;6.18;5.68;;;24.30;99.90;;;;;;5029324;28;20234;-77
2021/07/23 08:40:32;;;;;;;5.90;5.30;;;24.40;99.90;;;;;;5023095;28;20647;-77
2021/07/23 08:43:02;;;;;;;5.55;5.05;;;24.40;99.90;;;;;;5031404;28;20247;-77
2021/07/23 08:45:29;;;;;;;4.80;4.40;;;24.50;99.90;;;;;;5026386;28;20222;-77
2021/07/23 08:47:56;;;;;;;6.25;5.65;;;24.50;99.90;;;;;;5029381;28;20235;-76
2021/07/23 08:50:24;;;;;;;5.88;5.28;;;24.50;99.90;;;;;;5034351;28;20982;-77
2021/07/23 08:52:54;;;;;;;6.07;5.57;;;24.50;99.90;;;;;;5025630;28;20300;-78
2021/07/23 08:55:22;;;;;;;5.88;5.10;;;24.50;99.90;;;;;;5026335;28;20801;-76
2021/07/23 08:57:49;;;;;;;5.05;4.65;;;24.50;99.90;;;;;;5027888;28;20274;-76
2021/07/23 09:00:19;;;;;;;5.88;5.25;;;24.70;99.90;;;;;;5033507;28;20767;-76
2021/07/23 09:02:54;;;;;;;5.82;5.15;;;25.00;99.90;;;;;;5029737;28;20224;-77
2021/07/23 09:05:22;;;;;;;5.43;5.03;;;25.20;99.90;;;;;;5023003;28;20223;-77
2021/07/23 09:07:49;;;;;;;6.25;5.75;;;25.40;99.90;;;;;;5030973;28;20585;-76
2021/07/23 09:10:25;;;;;;;6.40;5.63;;;25.30;99.90;;;;;;5031955;28;20227;-77
2021/07/23 09:12:54;;;;;;;5.10;4.70;;;25.40;99.90;;;;;;5026256;28;20673;-77
2021/07/23 09:15:24;;;;;;;6.53;5.60;;;25.20;99.90;;;;;;5026590;28;20238;-77
2021/07/23 09:17:51;;;;;;;5.30;4.80;;;25.20;99.90;;;;;;5021729;28;20223;-77
2021/07/23 09:20:24;;;;;;;6.60;6.00;;;25.20;99.90;;;;;;5014558;28;20722;-76
2021/07/23 09:22:52;;;;;;;6.57;5.95;;;25.30;99.90;;;;;;5014336;28;20228;-76
2021/07/23 09:25:35;;;;;;;5.72;5.22;;;25.40;99.90;;;;;;5014803;28;20263;-77
2021/07/23 09:28:02;;;;;;;5.95;5.45;;;25.70;99.90;;;;;;5017822;28;20716;-77
2021/07/23 09:30:42;;;;;;;5.13;4.63;;;25.90;99.90;;;;;;5019126;28;20220;-80
2021/07/23 09:33:10;;;;;;;5.68;5.13;;;26.00;99.90;;;;;;5024918;28;20254;-76
2021/07/23 09:35:37;;;;;;;5.40;4.97;;;26.20;99.90;;;;;;5026432;28;20604;-77
2021/07/23 09:38:04;;;;;;;5.63;5.05;;;26.20;99.90;;;;;;5016459;28;20638;-77
2021/07/23 09:40:43;;;;;;;5.70;5.22;;;26.10;99.90;;;;;;5011232;28;20670;-77
2021/07/23 09:43:10;;;;;;;5.68;5.07;;;26.20;99.90;;;;;;5027274;28;20269;-78
2021/07/23 09:45:37;;;;;;;6.13;5.55;;;26.10;99.90;;;;;;5024975;28;20307;-78
2021/07/23 09:48:12;;;;;;;5.38;4.97;;;26.10;99.90;;;;;;5028919;28;20227;-79
2021/07/23 09:50:43;;;;;;;5.88;5.43;;;26.30;99.90;;;;;;5017619;28;20219;-78
2021/07/23 09:53:10;;;;;;;6.32;5.68;;;26.30;99.90;;;;;;5020664;28;20223;-78
2021/07/23 09:55:40;;;;;;;5.47;5.00;;;26.20;99.90;;;;;;5019259;28;20780;-77
2021/07/23 09:58:08;;;;;;;6.20;5.50;;;26.00;99.90;;;;;;5018769;28;20781;-78
2021/07/23 10:00:39;;;;;;;6.03;5.43;;;26.00;99.90;;;;;;5025763;28;20235;-77
2021/07/23 10:03:13;;;;;;;6.78;6.18;;;26.00;99.90;;;;;;5015502;28;20227;-77
2021/07/23 10:05:47;;;;;;;5.80;5.30;;;26.10;99.90;;;;;;5021821;28;20223;-78
2021/07/23 10:08:23;;;;;;;5.45;5.05;;;26.10;99.90;;;;;;5020094;28;21755;-76
2021/07/23 10:10:54;;;;;;;5.70;5.20;;;26.20;99.90;;;;;;5020340;28;20714;-78
2021/07/23 10:13:23;;;;;;;6.47;5.35;;;26.20;99.90;;;;;;5017520;28;20305;-78
2021/07/23 10:15:50;;;;;;;5.47;5.03;;;26.20;99.90;;;;;;5019742;28;20318;-77
2021/07/23 10:18:18;;;;;;;5.65;5.20;;;26.20;99.90;;;;;;5013390;28;20220;-77
2021/07/23 10:20:46;;;;;;;6.07;5.47;;;26.30;99.90;;;;;;5018769;28;20318;-75
2021/07/23 10:23:18;;;;;;;5.15;4.75;;;26.50;99.90;;;;;;5021181;28;20302;-77
2021/07/23 10:25:48;;;;;;;5.45;5.05;;;26.60;99.90;;;;;;5015091;28;20232;-75
2021/07/23 10:28:52;;;;;;;5.50;5.00;;;26.60;99.90;;;;;;5019153;28;20239;-76
2021/07/23 10:31:47;;;;;;;5.78;5.28;;;26.70;99.90;;;;;;5026538;28;20262;-77
2021/07/23 10:34:33;;;;;;;5.53;5.03;;;26.90;99.90;;;;;;5015448;28;20219;-77
2021/07/23 10:37:02;;;;;;;5.32;4.93;;;27.10;99.90;;;;;;5018945;28;20226;-77
2021/07/23 10:39:29;;;;;;;5.53;5.03;;;27.00;99.90;;;;;;5022635;28;20222;-77
2021/07/23 10:42:27;;;;;;;5.18;4.60;;;26.90;99.90;;;;;;5027041;28;20528;-77
2021/07/23 10:44:54;;;;;;;5.65;5.15;;;26.90;99.90;;;;;;4986963;28;20697;-77
2021/07/23 10:47:36;;;;;;;5.90;5.40;;;26.90;99.90;;;;;;5035216;28;20224;-76
2021/07/23 10:50:04;;;;;;;5.30;4.90;;;27.00;99.90;;;;;;5022862;28;20235;-77
2021/07/23 10:52:36;;;;;;;7.38;5.55;;;27.00;99.90;;;;;;5023626;28;20280;-77
2021/07/23 10:55:21;;;;;;;6.38;5.78;;;27.20;99.90;;;;;;5018283;28;20224;-78
2021/07/23 10:58:39;;;;;;;5.30;4.88;;;27.40;99.90;;;;;;5015896;28;20729;-77
2021/07/23 11:01:06;;;;;;;5.75;5.25;;;27.70;99.90;;;;;;4985192;28;20220;-79
2021/07/23 11:04:02;;;;;;;5.63;5.22;;;27.80;99.90;;;;;;4983726;28;20220;-77
2021/07/23 11:06:38;;;;;;;5.63;5.13;;;27.90;99.90;;;;;;5007829;28;20309;-78
2021/07/23 11:09:07;;;;;;;5.38;4.93;;;27.80;99.90;;;;;;5019746;28;20603;-79
2021/07/23 11:11:34;;;;;;;5.80;5.30;;;27.70;99.90;;;;;;5019921;28;20305;-75
2021/07/23 11:14:15;;;;;;;5.05;4.65;;;27.70;99.90;;;;;;5020041;28;20780;-75
2021/07/23 11:16:43;;;;;;;5.45;4.95;;;27.90;99.90;;;;;;5018506;28;20705;-76
2021/07/23 11:19:22;;;;;;;5.45;5.03;;;28.10;99.90;;;;;;5018126;28;20216;-77
2021/07/23 11:21:49;;;;;;;5.95;5.45;;;28.20;99.90;;;;;;5015851;28;22368;-78
2021/07/23 11:24:17;;;;;;;5.82;5.32;;;27.90;99.90;;;;;;5019170;28;20722;-79
2021/07/23 11:26:52;;;;;;;6.32;5.70;;;27.80;99.90;;;;;;5026043;28;20604;-78
2021/07/23 11:29:33;;;;;;;6.53;5.53;;;27.80;99.90;;;;;;5025731;28;20603;-78
2021/07/23 11:32:06;;;;;;;6.55;6.00;;;27.70;99.90;;;;;;5003311;28;20690;-79
2021/07/23 11:34:38;;;;;;;6.05;5.55;;;27.80;99.90;;;;;;5007506;28;20227;-78
2021/07/23 11:37:16;;;;;;;6.30;5.80;;;27.80;99.90;;;;;;5011803;28;20294;-79
2021/07/23 11:39:54;;;;;;;5.75;5.28;;;27.90;99.90;;;;;;5016223;28;20219;-80
2021/07/23 11:42:21;;;;;;;5.60;5.20;;;27.90;99.90;;;;;;5030170;28;20280;-79
2021/07/23 11:44:53;;;;;;;6.38;5.72;;;28.00;99.90;;;;;;5019098;28;20220;-78
2021/07/23 11:47:30;;;;;;;6.13;5.63;;;28.10;99.90;;;;;;5020090;28;20231;-78
2021/07/23 11:50:00;;;;;;;6.63;6.03;;;28.10;99.90;;;;;;5014373;28;20231;-78
2021/07/23 11:52:27;;;;;;;6.50;6.00;;;28.00;99.90;;;;;;5030738;28;20298;-78
2021/07/23 11:55:00;;;;;;;5.68;5.28;;;27.80;99.90;;;;;;5017982;28;20227;-78
2021/07/23 11:57:27;;;;;;;6.90;6.28;;;27.70;99.90;;;;;;5017780;28;20226;-78
2021/07/23 11:59:54;;;;;;;6.65;6.13;;;27.80;99.90;;;;;;5019028;28;20232;-78
2021/07/23 12:02:26;;;;;;;10.80;6.30;;;27.80;99.90;;;;;;5018949;28;20281;-78
2021/07/23 12:05:08;;;;;;;6.88;6.20;;;28.10;99.90;;;;;;5025260;28;20307;-78
2021/07/23 12:07:36;;;;;;;5.82;5.25;;;28.20;99.90;;;;;;5025188;28;20247;-78
2021/07/23 12:10:04;;;;;;;6.00;5.50;;;28.40;99.90;;;;;;5023150;28;20285;-78
2021/07/23 12:12:32;;;;;;;5.93;5.43;;;28.60;99.90;;;;;;5024945;28;20282;-78
2021/07/23 12:15:04;;;;;;;6.07;5.55;;;28.70;99.90;;;;;;5028153;28;20286;-78
2021/07/23 12:17:31;;;;;;;5.97;5.47;;;28.80;99.90;;;;;;5026958;28;20594;-79
2021/07/23 12:19:58;;;;;;;5.18;4.68;;;28.80;99.90;;;;;;5027912;28;20632;-78
2021/07/23 12:22:27;;;;;;;6.10;5.28;;;28.90;99.90;;;;;;5033557;28;20224;-78
2021/07/23 12:24:54;;;;;;;9.07;5.15;;;29.00;99.90;;;;;;5019489;28;20228;-79
2021/07/23 12:27:23;;;;;;;5.15;4.65;;;29.00;99.90;;;;;;5033906;28;20223;-79
2021/07/23 12:29:51;;;;;;;5.15;4.47;;;29.20;99.90;;;;;;5024389;28;20231;-79
2021/07/23 12:32:23;;;;;;;5.20;4.80;;;29.30;99.90;;;;;;5032279;28;20273;-78
2021/07/23 12:35:00;;;;;;;6.07;4.63;;;29.40;99.90;;;;;;5024553;28;20311;-78
2021/07/23 12:37:29;;;;;;;5.30;4.90;;;29.40;99.90;;;;;;5027690;28;20636;-78
2021/07/23 12:39:58;;;;;;;5.20;4.78;;;29.40;99.90;;;;;;5027371;28;20220;-78
2021/07/23 12:42:26;;;;;;;5.68;4.80;;;29.30;99.90;;;;;;5022794;28;20251;-78
2021/07/23 12:44:53;;;;;;;6.05;5.45;;;29.20;99.90;;;;;;5028381;28;20281;-79
2021/07/23 12:47:22;;;;;;;5.35;4.75;;;29.30;99.90;;;;;;5028716;28;20706;-79
2021/07/23 12:49:49;;;;;;;5.88;5.28;;;29.30;99.90;;;;;;5026909;28;20231;-79
2021/07/23 12:52:17;;;;;;;5.35;4.85;;;29.30;99.90;;;;;;5025733;28;20235;-79
2021/07/23 12:54:47;;;;;;;5.72;4.68;;;29.40;99.90;;;;;;5025304;28;20227;-78
2021/07/23 12:57:19;;;;;;;5.05;4.22;;;29.50;99.90;;;;;;5023088;28;20306;-79